Silverwood, Michigan
Current Conditions -  °F | °C
As of 10:54 PM on Wednesday 22 Oct 2014 (Local Time) from KCFS Reporting Station
Clear Clear  
Wind Chill: 32°   Ceiling: Unl
Heat Index: 32°   Visibility: 10mi
Dew Point: 32°   Wind: 0mph
Humidity: 99%   Direction: NA
Pressure: 30.3"   Gusts: NA
Location:  43.32°N, 83.25°W
Report Text: KCFS 230254Z AUTO 00000KT 10SM CLR 00/00 A3030 RMK AO2 T00020000
Loading
Personal Weather Stations






























Interactive Weather Map
Tropical Storm Tracking
New forecast layout! Learn more

10-Day Weather Forecast

Advertisements
Track Severe Weather on mobile